sensor_id;sensor_type;location;lat;lon;timestamp;pressure;altitude;pressure_sealevel;temperature;humidity
78745;BME280;68064;53.100;8.824;2023-05-20T00:00:37;102723.84;;;13.68;48.14
78745;BME280;68064;53.100;8.824;2023-05-20T00:01:38;102733.69;;;13.48;50.08
78745;BME280;68064;53.100;8.824;2023-05-20T00:02:39;102727.94;;;13.52;48.29
78745;BME280;68064;53.100;8.824;2023-05-20T00:03:40;102731.31;;;13.51;48.01
78745;BME280;68064;53.100;8.824;2023-05-20T00:04:42;102731.03;;;13.46;48.15
78745;BME280;68064;53.100;8.824;2023-05-20T00:05:43;102725.22;;;13.36;48.71
78745;BME280;68064;53.100;8.824;2023-05-20T00:06:44;102727.41;;;13.43;47.53
78745;BME280;68064;53.100;8.824;2023-05-20T00:07:45;102735.19;;;13.44;48.32
78745;BME280;68064;53.100;8.824;2023-05-20T00:08:46;102730.63;;;13.40;47.43
78745;BME280;68064;53.100;8.824;2023-05-20T00:09:47;102733.22;;;13.40;48.62
78745;BME280;68064;53.100;8.824;2023-05-20T00:10:48;102731.66;;;13.42;47.37
78745;BME280;68064;53.100;8.824;2023-05-20T00:11:49;102731.28;;;13.36;48.15
78745;BME280;68064;53.100;8.824;2023-05-20T00:12:50;102732.16;;;13.37;49.25
78745;BME280;68064;53.100;8.824;2023-05-20T00:13:51;102734.75;;;13.37;47.42
78745;BME280;68064;53.100;8.824;2023-05-20T00:14:52;102733.13;;;13.39;48.05
78745;BME280;68064;53.100;8.824;2023-05-20T00:15:53;102732.25;;;13.38;46.95
78745;BME280;68064;53.100;8.824;2023-05-20T00:16:55;102732.47;;;13.28;49.19
78745;BME280;68064;53.100;8.824;2023-05-20T00:17:56;102735.53;;;13.22;49.50
78745;BME280;68064;53.100;8.824;2023-05-20T00:18:57;102731.00;;;13.18;48.18
78745;BME280;68064;53.100;8.824;2023-05-20T00:19:59;102733.69;;;13.20;48.32
78745;BME280;68064;53.100;8.824;2023-05-20T00:21:00;102731.81;;;13.17;47.27
78745;BME280;68064;53.100;8.824;2023-05-20T00:22:01;102732.78;;;13.19;47.02
78745;BME280;68064;53.100;8.824;2023-05-20T00:23:02;102731.41;;;13.11;48.42
78745;BME280;68064;53.100;8.824;2023-05-20T00:24:04;102737.13;;;13.07;47.84
78745;BME280;68064;53.100;8.824;2023-05-20T00:25:05;102731.41;;;12.98;50.38
78745;BME280;68064;53.100;8.824;2023-05-20T00:26:06;102741.19;;;13.04;48.18
78745;BME280;68064;53.100;8.824;2023-05-20T00:27:07;102733.00;;;13.09;47.09
78745;BME280;68064;53.100;8.824;2023-05-20T00:28:08;102736.78;;;13.14;46.70
78745;BME280;68064;53.100;8.824;2023-05-20T00:29:09;102738.44;;;13.01;48.70
78745;BME280;68064;53.100;8.824;2023-05-20T00:30:11;102736.94;;;12.91;49.81
78745;BME280;68064;53.100;8.824;2023-05-20T00:31:12;102741.78;;;12.87;49.63
78745;BME280;68064;53.100;8.824;2023-05-20T00:32:13;102733.69;;;12.94;48.64
78745;BME280;68064;53.100;8.824;2023-05-20T00:33:14;102734.97;;;12.87;49.54
78745;BME280;68064;53.100;8.824;2023-05-20T00:34:15;102739.13;;;12.85;49.33
78745;BME280;68064;53.100;8.824;2023-05-20T00:35:17;102742.28;;;12.94;47.34
78745;BME280;68064;53.100;8.824;2023-05-20T00:36:18;102735.38;;;12.80;49.30
78745;BME280;68064;53.100;8.824;2023-05-20T00:37:19;102737.84;;;12.79;48.38
78745;BME280;68064;53.100;8.824;2023-05-20T00:38:20;102738.03;;;12.68;48.50
78745;BME280;68064;53.100;8.824;2023-05-20T00:39:22;102734.38;;;12.78;47.20
78745;BME280;68064;53.100;8.824;2023-05-20T00:40:23;102736.97;;;12.78;47.29
78745;BME280;68064;53.100;8.824;2023-05-20T00:41:23;102738.34;;;12.73;47.82
78745;BME280;68064;53.100;8.824;2023-05-20T00:42:25;102732.13;;;12.69;47.91
78745;BME280;68064;53.100;8.824;2023-05-20T00:43:27;102734.97;;;12.61;48.92
78745;BME280;68064;53.100;8.824;2023-05-20T00:44:28;102738.34;;;12.60;48.93
78745;BME280;68064;53.100;8.824;2023-05-20T00:45:29;102739.31;;;12.62;47.83
78745;BME280;68064;53.100;8.824;2023-05-20T00:46:30;102742.06;;;12.52;49.08
78745;BME280;68064;53.100;8.824;2023-05-20T00:47:32;102741.59;;;12.57;48.89
78745;BME280;68064;53.100;8.824;2023-05-20T00:48:38;102744.16;;;12.57;47.46
78745;BME280;68064;53.100;8.824;2023-05-20T00:49:40;102746.03;;;12.47;50.08
78745;BME280;68064;53.100;8.824;2023-05-20T00:50:42;102741.09;;;12.50;48.37
78745;BME280;68064;53.100;8.824;2023-05-20T00:51:43;102740.00;;;12.46;47.88
78745;BME280;68064;53.100;8.824;2023-05-20T00:52:45;102738.13;;;12.44;48.59
78745;BME280;68064;53.100;8.824;2023-05-20T00:53:45;102740.59;;;12.42;47.97
78745;BME280;68064;53.100;8.824;2023-05-20T00:54:48;102738.41;;;12.35;49.92
78745;BME280;68064;53.100;8.824;2023-05-20T00:55:49;102739.50;;;12.39;49.12
78745;BME280;68064;53.100;8.824;2023-05-20T00:56:50;102730.13;;;12.39;47.72
78745;BME280;68064;53.100;8.824;2023-05-20T00:57:52;102733.09;;;12.45;47.42
78745;BME280;68064;53.100;8.824;2023-05-20T00:58:54;102736.91;;;12.39;47.33
78745;BME280;68064;53.100;8.824;2023-05-20T00:59:55;102731.22;;;12.43;47.07
78745;BME280;68064;53.100;8.824;2023-05-20T01:00:56;102734.47;;;12.40;46.99
78745;BME280;68064;53.100;8.824;2023-05-20T01:01:58;102740.88;;;12.34;47.66
78745;BME280;68064;53.100;8.824;2023-05-20T01:02:59;102735.53;;;12.31;47.23
78745;BME280;68064;53.100;8.824;2023-05-20T01:04:00;102728.97;;;12.09;50.50
78745;BME280;68064;53.100;8.824;2023-05-20T01:05:02;102737.97;;;12.03;50.83
78745;BME280;68064;53.100;8.824;2023-05-20T01:06:05;102733.13;;;12.07;48.59
78745;BME280;68064;53.100;8.824;2023-05-20T01:07:06;102733.44;;;12.12;47.79
78745;BME280;68064;53.100;8.824;2023-05-20T01:08:07;102736.22;;;11.90;51.08
78745;BME280;68064;53.100;8.824;2023-05-20T01:09:08;102735.84;;;11.97;50.00
78745;BME280;68064;53.100;8.824;2023-05-20T01:10:09;102737.16;;;12.04;48.25
78745;BME280;68064;53.100;8.824;2023-05-20T01:11:17;102735.63;;;11.94;50.84
78745;BME280;68064;53.100;8.824;2023-05-20T01:12:24;102730.25;;;12.03;48.63
78745;BME280;68064;53.100;8.824;2023-05-20T01:13:30;102733.69;;;12.03;47.65
78745;BME280;68064;53.100;8.824;2023-05-20T01:14:36;102735.06;;;11.98;47.97
78745;BME280;68064;53.100;8.824;2023-05-20T01:15:39;102736.88;;;11.99;47.70
78745;BME280;68064;53.100;8.824;2023-05-20T01:16:41;102734.09;;;11.96;47.93
78745;BME280;68064;53.100;8.824;2023-05-20T01:17:45;102731.31;;;11.93;48.60
78745;BME280;68064;53.100;8.824;2023-05-20T01:18:46;102733.97;;;11.95;48.16
78745;BME280;68064;53.100;8.824;2023-05-20T01:19:48;102738.78;;;11.90;49.91
78745;BME280;68064;53.100;8.824;2023-05-20T01:20:52;102733.34;;;11.86;48.72
78745;BME280;68064;53.100;8.824;2023-05-20T01:21:56;102730.00;;;11.87;49.20
78745;BME280;68064;53.100;8.824;2023-05-20T01:22:59;102741.78;;;11.72;50.83
78745;BME280;68064;53.100;8.824;2023-05-20T01:24:00;102737.06;;;11.78;48.77
78745;BME280;68064;53.100;8.824;2023-05-20T01:25:01;102735.78;;;11.84;48.20
78745;BME280;68064;53.100;8.824;2023-05-20T01:26:02;102728.91;;;11.83;48.30
78745;BME280;68064;53.100;8.824;2023-05-20T01:27:03;102731.47;;;11.83;48.38
78745;BME280;68064;53.100;8.824;2023-05-20T01:28:04;102724.19;;;11.89;47.55
78745;BME280;68064;53.100;8.824;2023-05-20T01:29:05;102730.22;;;11.90;48.14
78745;BME280;68064;53.100;8.824;2023-05-20T01:30:07;102737.59;;;11.85;48.01
78745;BME280;68064;53.100;8.824;2023-05-20T01:31:11;102736.22;;;11.90;47.59
78745;BME280;68064;53.100;8.824;2023-05-20T01:32:18;102736.34;;;11.92;47.51
78745;BME280;68064;53.100;8.824;2023-05-20T01:33:21;102734.59;;;11.79;49.61
78745;BME280;68064;53.100;8.824;2023-05-20T01:34:24;102733.03;;;11.81;48.73
78745;BME280;68064;53.100;8.824;2023-05-20T01:35:26;102734.81;;;11.82;48.39
78745;BME280;68064;53.100;8.824;2023-05-20T01:36:28;102732.25;;;11.82;47.82
78745;BME280;68064;53.100;8.824;2023-05-20T01:37:31;102737.19;;;11.79;49.70
78745;BME280;68064;53.100;8.824;2023-05-20T01:38:37;102732.03;;;11.79;47.40
78745;BME280;68064;53.100;8.824;2023-05-20T01:39:40;102730.25;;;11.78;47.91
78745;BME280;68064;53.100;8.824;2023-05-20T01:40:42;102728.91;;;11.83;47.89
78745;BME280;68064;53.100;8.824;2023-05-20T01:41:44;102730.66;;;11.84;47.68
78745;BME280;68064;53.100;8.824;2023-05-20T01:42:46;102730.66;;;11.84;47.88
78745;BME280;68064;53.100;8.824;2023-05-20T01:43:48;102732.25;;;11.82;47.44
78745;BME280;68064;53.100;8.824;2023-05-20T01:44:50;102733.16;;;11.83;46.99
78745;BME280;68064;53.100;8.824;2023-05-20T01:45:51;102729.69;;;11.82;46.93
78745;BME280;68064;53.100;8.824;2023-05-20T01:46:52;102725.94;;;11.77;47.62
78745;BME280;68064;53.100;8.824;2023-05-20T01:47:53;102725.03;;;11.77;48.18
78745;BME280;68064;53.100;8.824;2023-05-20T01:48:54;102722.69;;;11.80;47.28
78745;BME280;68064;53.100;8.824;2023-05-20T01:49:55;102725.59;;;11.73;50.11
78745;BME280;68064;53.100;8.824;2023-05-20T01:50:56;102726.03;;;11.67;50.69
78745;BME280;68064;53.100;8.824;2023-05-20T01:51:58;102726.63;;;11.63;48.22
78745;BME280;68064;53.100;8.824;2023-05-20T01:52:59;102720.72;;;11.64;47.82
78745;BME280;68064;53.100;8.824;2023-05-20T01:54:01;102717.25;;;11.63;49.77
78745;BME280;68064;53.100;8.824;2023-05-20T01:55:03;102722.25;;;11.62;47.97
78745;BME280;68064;53.100;8.824;2023-05-20T01:56:04;102725.16;;;11.66;47.35
78745;BME280;68064;53.100;8.824;2023-05-20T01:57:05;102715.88;;;11.68;47.32
78745;BME280;68064;53.100;8.824;2023-05-20T01:58:06;102716.69;;;11.67;47.86
78745;BME280;68064;53.100;8.824;2023-05-20T01:59:08;102717.53;;;11.68;47.82
78745;BME280;68064;53.100;8.824;2023-05-20T02:00:10;102717.53;;;11.68;47.10
78745;BME280;68064;53.100;8.824;2023-05-20T02:01:11;102714.19;;;11.69;46.69
78745;BME280;68064;53.100;8.824;2023-05-20T02:02:12;102718.44;;;11.68;46.92
78745;BME280;68064;53.100;8.824;2023-05-20T02:03:13;102712.22;;;11.65;47.09
78745;BME280;68064;53.100;8.824;2023-05-20T02:04:14;102709.91;;;11.56;48.45
78745;BME280;68064;53.100;8.824;2023-05-20T02:05:15;102710.81;;;11.57;49.94
78745;BME280;68064;53.100;8.824;2023-05-20T02:06:16;102721.06;;;11.57;47.98
78745;BME280;68064;53.100;8.824;2023-05-20T02:07:17;102709.13;;;11.57;47.59
78745;BME280;68064;53.100;8.824;2023-05-20T02:08:18;102714.97;;;11.43;50.90
78745;BME280;68064;53.100;8.824;2023-05-20T02:09:21;102715.31;;;11.48;47.63
78745;BME280;68064;53.100;8.824;2023-05-20T02:10:22;102715.09;;;11.45;48.56
78745;BME280;68064;53.100;8.824;2023-05-20T02:11:23;102713.50;;;11.47;47.94
78745;BME280;68064;53.100;8.824;2023-05-20T02:12:24;102710.25;;;11.49;47.15
78745;BME280;68064;53.100;8.824;2023-05-20T02:13:25;102711.38;;;11.53;48.45
78745;BME280;68064;53.100;8.824;2023-05-20T02:14:26;102713.44;;;11.45;50.48
78745;BME280;68064;53.100;8.824;2023-05-20T02:15:27;102709.84;;;11.43;48.66
78745;BME280;68064;53.100;8.824;2023-05-20T02:16:28;102710.41;;;11.39;48.58
78745;BME280;68064;53.100;8.824;2023-05-20T02:17:29;102710.63;;;11.42;47.98
78745;BME280;68064;53.100;8.824;2023-05-20T02:18:30;102705.38;;;11.16;53.00
78745;BME280;68064;53.100;8.824;2023-05-20T02:19:32;102711.22;;;11.27;49.02
78745;BME280;68064;53.100;8.824;2023-05-20T02:20:34;102712.47;;;11.32;48.50
78745;BME280;68064;53.100;8.824;2023-05-20T02:21:36;102705.31;;;11.28;49.87
78745;BME280;68064;53.100;8.824;2023-05-20T02:22:37;102709.97;;;11.33;47.97
78745;BME280;68064;53.100;8.824;2023-05-20T02:23:38;102714.34;;;11.34;49.89
78745;BME280;68064;53.100;8.824;2023-05-20T02:24:40;102717.16;;;11.26;49.53
78745;BME280;68064;53.100;8.824;2023-05-20T02:25:42;102713.78;;;11.27;48.23
78745;BME280;68064;53.100;8.824;2023-05-20T02:26:45;102714.91;;;11.30;47.85
78745;BME280;68064;53.100;8.824;2023-05-20T02:27:46;102715.91;;;11.32;47.61
78745;BME280;68064;53.100;8.824;2023-05-20T02:28:47;102720.16;;;11.20;50.90
78745;BME280;68064;53.100;8.824;2023-05-20T02:29:48;102714.38;;;11.23;48.89
78745;BME280;68064;53.100;8.824;2023-05-20T02:30:49;102715.38;;;11.25;48.42
78745;BME280;68064;53.100;8.824;2023-05-20T02:31:50;102717.25;;;11.27;48.39
78745;BME280;68064;53.100;8.824;2023-05-20T02:32:51;102713.78;;;11.27;47.46
78745;BME280;68064;53.100;8.824;2023-05-20T02:33:52;102721.19;;;11.22;50.38
78745;BME280;68064;53.100;8.824;2023-05-20T02:34:53;102715.38;;;11.25;48.38
78745;BME280;68064;53.100;8.824;2023-05-20T02:35:54;102717.97;;;11.13;53.45
78745;BME280;68064;53.100;8.824;2023-05-20T02:36:56;102719.84;;;11.15;51.05
78745;BME280;68064;53.100;8.824;2023-05-20T02:37:57;102712.38;;;11.19;48.37
78745;BME280;68064;53.100;8.824;2023-05-20T02:38:58;102720.09;;;11.07;51.60
78745;BME280;68064;53.100;8.824;2023-05-20T02:40:00;102722.47;;;11.04;49.30
78745;BME280;68064;53.100;8.824;2023-05-20T02:41:01;102724.69;;;10.99;49.61
78745;BME280;68064;53.100;8.824;2023-05-20T02:42:02;102720.66;;;11.03;48.65
78745;BME280;68064;53.100;8.824;2023-05-20T02:43:03;102723.31;;;11.04;49.72
78745;BME280;68064;53.100;8.824;2023-05-20T02:44:04;102726.78;;;11.05;48.46
78745;BME280;68064;53.100;8.824;2023-05-20T02:45:06;102725.09;;;11.05;47.80
78745;BME280;68064;53.100;8.824;2023-05-20T02:46:08;102723.91;;;11.00;49.66
78745;BME280;68064;53.100;8.824;2023-05-20T02:47:09;102723.09;;;11.01;48.02
78745;BME280;68064;53.100;8.824;2023-05-20T02:48:10;102725.66;;;11.01;48.72
78745;BME280;68064;53.100;8.824;2023-05-20T02:49:11;102732.59;;;11.02;47.80
78745;BME280;68064;53.100;8.824;2023-05-20T02:50:12;102729.13;;;11.02;47.53
78745;BME280;68064;53.100;8.824;2023-05-20T02:51:13;102730.56;;;10.98;49.33
78745;BME280;68064;53.100;8.824;2023-05-20T02:52:14;102723.09;;;11.01;47.76
78745;BME280;68064;53.100;8.824;2023-05-20T02:53:15;102728.00;;;10.98;51.33
78745;BME280;68064;53.100;8.824;2023-05-20T02:54:16;102727.56;;;10.92;52.38
78745;BME280;68064;53.100;8.824;2023-05-20T02:55:19;102732.47;;;10.89;49.90
78745;BME280;68064;53.100;8.824;2023-05-20T02:56:20;102726.91;;;10.83;53.81
78745;BME280;68064;53.100;8.824;2023-05-20T02:57:21;102727.69;;;10.82;50.98
78745;BME280;68064;53.100;8.824;2023-05-20T02:58:22;102727.94;;;10.74;53.62
78745;BME280;68064;53.100;8.824;2023-05-20T02:59:23;102728.28;;;10.78;49.95
78745;BME280;68064;53.100;8.824;2023-05-20T03:00:24;102725.03;;;10.81;48.63
78745;BME280;68064;53.100;8.824;2023-05-20T03:01:25;102733.19;;;10.75;51.60
78745;BME280;68064;53.100;8.824;2023-05-20T03:02:26;102730.03;;;10.79;48.60
78745;BME280;68064;53.100;8.824;2023-05-20T03:03:27;102728.91;;;10.76;48.18
78745;BME280;68064;53.100;8.824;2023-05-20T03:04:28;102729.16;;;10.67;53.68
78745;BME280;68064;53.100;8.824;2023-05-20T03:05:29;102722.47;;;10.69;48.91
78745;BME280;68064;53.100;8.824;2023-05-20T03:06:30;102726.81;;;10.70;48.76
78745;BME280;68064;53.100;8.824;2023-05-20T03:07:33;102729.50;;;10.72;48.53
78745;BME280;68064;53.100;8.824;2023-05-20T03:08:34;102731.38;;;10.39;54.97
78745;BME280;68064;53.100;8.824;2023-05-20T03:09:35;102728.03;;;10.52;50.04
78745;BME280;68064;53.100;8.824;2023-05-20T03:10:38;102732.50;;;10.54;49.31
78745;BME280;68064;53.100;8.824;2023-05-20T03:11:39;102727.59;;;10.57;49.52
78745;BME280;68064;53.100;8.824;2023-05-20T03:12:40;102728.38;;;10.56;49.28
78745;BME280;68064;53.100;8.824;2023-05-20T03:13:41;102730.28;;;10.59;48.83
78745;BME280;68064;53.100;8.824;2023-05-20T03:14:42;102731.94;;;10.58;48.53
78745;BME280;68064;53.100;8.824;2023-05-20T03:15:43;102730.47;;;10.50;49.20
78745;BME280;68064;53.100;8.824;2023-05-20T03:16:44;102729.13;;;10.44;51.81
78745;BME280;68064;53.100;8.824;2023-05-20T03:17:45;102726.69;;;10.45;49.13
78745;BME280;68064;53.100;8.824;2023-05-20T03:18:46;102731.28;;;10.49;48.77
78745;BME280;68064;53.100;8.824;2023-05-20T03:19:47;102725.13;;;10.47;48.75
78745;BME280;68064;53.100;8.824;2023-05-20T03:20:48;102732.94;;;10.49;48.47
78745;BME280;68064;53.100;8.824;2023-05-20T03:21:49;102729.59;;;10.50;48.39
78745;BME280;68064;53.100;8.824;2023-05-20T03:22:50;102731.50;;;10.52;48.44
78745;BME280;68064;53.100;8.824;2023-05-20T03:23:51;102733.84;;;10.49;48.47
78745;BME280;68064;53.100;8.824;2023-05-20T03:24:52;102731.25;;;10.26;55.30
78745;BME280;68064;53.100;8.824;2023-05-20T03:25:55;102728.47;;;10.23;51.95
78745;BME280;68064;53.100;8.824;2023-05-20T03:26:56;102731.78;;;10.22;54.69
78745;BME280;68064;53.100;8.824;2023-05-20T03:27:57;102725.69;;;10.20;51.74
78745;BME280;68064;53.100;8.824;2023-05-20T03:28:58;102726.78;;;10.24;49.86
78745;BME280;68064;53.100;8.824;2023-05-20T03:29:59;102726.22;;;10.28;49.23
78745;BME280;68064;53.100;8.824;2023-05-20T03:31:00;102722.56;;;10.24;49.65
78745;BME280;68064;53.100;8.824;2023-05-20T03:32:01;102729.00;;;10.19;52.64
78745;BME280;68064;53.100;8.824;2023-05-20T03:33:02;102723.13;;;10.20;50.46
78745;BME280;68064;53.100;8.824;2023-05-20T03:34:03;102727.94;;;10.05;52.65
78745;BME280;68064;53.100;8.824;2023-05-20T03:35:05;102722.28;;;10.09;52.94
78745;BME280;68064;53.100;8.824;2023-05-20T03:36:06;102731.84;;;10.12;54.31
78745;BME280;68064;53.100;8.824;2023-05-20T03:37:07;102731.28;;;10.04;55.04
78745;BME280;68064;53.100;8.824;2023-05-20T03:38:08;102727.38;;;10.09;50.88
78745;BME280;68064;53.100;8.824;2023-05-20T03:39:09;102727.69;;;10.02;53.03
78745;BME280;68064;53.100;8.824;2023-05-20T03:40:11;102725.13;;;10.02;53.10
78745;BME280;68064;53.100;8.824;2023-05-20T03:41:13;102729.78;;;9.96;54.51
78745;BME280;68064;53.100;8.824;2023-05-20T03:42:14;102730.59;;;9.95;51.21
78745;BME280;68064;53.100;8.824;2023-05-20T03:43:15;102724.91;;;9.99;51.41
78745;BME280;68064;53.100;8.824;2023-05-20T03:44:16;102731.34;;;9.94;51.00
78745;BME280;68064;53.100;8.824;2023-05-20T03:45:17;102723.78;;;9.96;50.45
78745;BME280;68064;53.100;8.824;2023-05-20T03:46:18;102723.78;;;9.96;49.85
78745;BME280;68064;53.100;8.824;2023-05-20T03:47:19;102726.47;;;9.97;51.44
78745;BME280;68064;53.100;8.824;2023-05-20T03:48:20;102722.03;;;9.95;49.52
78745;BME280;68064;53.100;8.824;2023-05-20T03:49:21;102725.72;;;9.98;49.87
78745;BME280;68064;53.100;8.824;2023-05-20T03:50:22;102724.69;;;9.96;50.79
78745;BME280;68064;53.100;8.824;2023-05-20T03:51:23;102729.25;;;9.89;52.69
78745;BME280;68064;53.100;8.824;2023-05-20T03:52:24;102729.88;;;9.86;51.07
78745;BME280;68064;53.100;8.824;2023-05-20T03:53:25;102730.91;;;9.88;49.91
78745;BME280;68064;53.100;8.824;2023-05-20T03:54:26;102730.09;;;9.89;49.61
78745;BME280;68064;53.100;8.824;2023-05-20T03:55:27;102732.34;;;9.85;53.76
78745;BME280;68064;53.100;8.824;2023-05-20T03:56:30;102733.09;;;9.84;50.16
78745;BME280;68064;53.100;8.824;2023-05-20T03:57:31;102725.56;;;9.85;49.62
78745;BME280;68064;53.100;8.824;2023-05-20T03:58:32;102724.44;;;9.82;50.32
78745;BME280;68064;53.100;8.824;2023-05-20T03:59:33;102726.97;;;9.82;49.69
78745;BME280;68064;53.100;8.824;2023-05-20T04:00:34;102726.09;;;9.81;50.20
78745;BME280;68064;53.100;8.824;2023-05-20T04:01:35;102733.84;;;9.83;49.94
78745;BME280;68064;53.100;8.824;2023-05-20T04:02:36;102730.31;;;9.81;55.41
78745;BME280;68064;53.100;8.824;2023-05-20T04:03:37;102735.09;;;9.76;51.14
78745;BME280;68064;53.100;8.824;2023-05-20T04:04:38;102729.97;;;9.76;50.07
78745;BME280;68064;53.100;8.824;2023-05-20T04:05:39;102726.75;;;9.79;49.37
78745;BME280;68064;53.100;8.824;2023-05-20T04:06:40;102734.66;;;9.82;49.46
78745;BME280;68064;53.100;8.824;2023-05-20T04:07:41;102725.41;;;9.84;49.58
78745;BME280;68064;53.100;8.824;2023-05-20T04:08:42;102731.31;;;9.83;52.52
78745;BME280;68064;53.100;8.824;2023-05-20T04:09:43;102732.88;;;9.81;50.57
78745;BME280;68064;53.100;8.824;2023-05-20T04:10:45;102732.88;;;9.81;49.45
78745;BME280;68064;53.100;8.824;2023-05-20T04:11:47;102726.09;;;9.81;49.07
78745;BME280;68064;53.100;8.824;2023-05-20T04:12:48;102730.22;;;9.79;49.09
78745;BME280;68064;53.100;8.824;2023-05-20T04:13:49;102732.75;;;9.79;50.03
78745;BME280;68064;53.100;8.824;2023-05-20T04:14:50;102733.53;;;9.78;49.34
78745;BME280;68064;53.100;8.824;2023-05-20T04:15:51;102729.47;;;9.70;57.99
78745;BME280;68064;53.100;8.824;2023-05-20T04:16:52;102730.28;;;9.69;51.86
78745;BME280;68064;53.100;8.824;2023-05-20T04:17:54;102729.72;;;9.73;50.32
78745;BME280;68064;53.100;8.824;2023-05-20T04:18:54;102729.06;;;9.76;49.21
78745;BME280;68064;53.100;8.824;2023-05-20T04:19:55;102728.06;;;9.74;49.90
78745;BME280;68064;53.100;8.824;2023-05-20T04:20:57;102724.34;;;9.70;51.83
78745;BME280;68064;53.100;8.824;2023-05-20T04:21:58;102725.41;;;9.72;50.21
78745;BME280;68064;53.100;8.824;2023-05-20T04:22:59;102732.03;;;9.70;49.83
78745;BME280;68064;53.100;8.824;2023-05-20T04:24:00;102729.47;;;9.70;49.35
78745;BME280;68064;53.100;8.824;2023-05-20T04:25:01;102729.47;;;9.70;52.91
78745;BME280;68064;53.100;8.824;2023-05-20T04:26:02;102729.38;;;9.69;49.93
78745;BME280;68064;53.100;8.824;2023-05-20T04:27:05;102721.56;;;9.67;49.11
78745;BME280;68064;53.100;8.824;2023-05-20T04:28:06;102727.34;;;9.65;53.93
78745;BME280;68064;53.100;8.824;2023-05-20T04:29:07;102724.78;;;9.65;50.78
78745;BME280;68064;53.100;8.824;2023-05-20T04:30:09;102731.03;;;9.68;49.74
78745;BME280;68064;53.100;8.824;2023-05-20T04:31:10;102728.63;;;9.70;49.59
78745;BME280;68064;53.100;8.824;2023-05-20T04:32:11;102725.41;;;9.72;49.24
78745;BME280;68064;53.100;8.824;2023-05-20T04:33:13;102727.81;;;9.71;51.11
78745;BME280;68064;53.100;8.824;2023-05-20T04:34:14;102724.59;;;9.73;49.82
78745;BME280;68064;53.100;8.824;2023-05-20T04:35:15;102724.84;;;9.76;50.11
78745;BME280;68064;53.100;8.824;2023-05-20T04:36:16;102733.41;;;9.77;50.21
78745;BME280;68064;53.100;8.824;2023-05-20T04:37:17;102735.84;;;9.75;51.39
78745;BME280;68064;53.100;8.824;2023-05-20T04:38:18;102734.06;;;9.74;50.71
78745;BME280;68064;53.100;8.824;2023-05-20T04:39:19;102738.19;;;9.72;54.02
78745;BME280;68064;53.100;8.824;2023-05-20T04:40:20;102727.72;;;9.69;50.77
78745;BME280;68064;53.100;8.824;2023-05-20T04:41:21;102723.50;;;9.70;51.36
78745;BME280;68064;53.100;8.824;2023-05-20T04:42:23;102730.94;;;9.67;53.15
78745;BME280;68064;53.100;8.824;2023-05-20T04:43:25;102728.47;;;9.68;50.77
78745;BME280;68064;53.100;8.824;2023-05-20T04:44:26;102732.94;;;9.71;49.94
78745;BME280;68064;53.100;8.824;2023-05-20T04:45:27;102731.28;;;9.71;50.52
78745;BME280;68064;53.100;8.824;2023-05-20T04:46:28;102732.16;;;9.72;50.22
78745;BME280;68064;53.100;8.824;2023-05-20T04:47:29;102731.28;;;9.71;49.90
78745;BME280;68064;53.100;8.824;2023-05-20T04:48:30;102731.03;;;9.68;56.98
78745;BME280;68064;53.100;8.824;2023-05-20T04:49:31;102731.94;;;9.69;51.50
78745;BME280;68064;53.100;8.824;2023-05-20T04:50:32;102729.47;;;9.70;49.92
78745;BME280;68064;53.100;8.824;2023-05-20T04:51:33;102727.06;;;9.72;49.77
78745;BME280;68064;53.100;8.824;2023-05-20T04:52:34;102730.38;;;9.71;50.25
78745;BME280;68064;53.100;8.824;2023-05-20T04:53:35;102728.72;;;9.71;50.19
78745;BME280;68064;53.100;8.824;2023-05-20T04:54:36;102725.25;;;9.71;55.57
78745;BME280;68064;53.100;8.824;2023-05-20T04:55:37;102730.28;;;9.69;58.13
78745;BME280;68064;53.100;8.824;2023-05-20T04:56:38;102728.63;;;9.70;56.47
78745;BME280;68064;53.100;8.824;2023-05-20T04:57:41;102727.59;;;9.68;52.69
78745;BME280;68064;53.100;8.824;2023-05-20T04:58:42;102732.84;;;9.69;51.56
78745;BME280;68064;53.100;8.824;2023-05-20T04:59:43;102732.84;;;9.69;50.61
78745;BME280;68064;53.100;8.824;2023-05-20T05:00:44;102731.16;;;9.70;58.72
78745;BME280;68064;53.100;8.824;2023-05-20T05:01:47;102732.16;;;9.72;52.68
78745;BME280;68064;53.100;8.824;2023-05-20T05:02:48;102738.28;;;9.74;58.71
78745;BME280;68064;53.100;8.824;2023-05-20T05:03:49;102732.53;;;9.76;52.01
78745;BME280;68064;53.100;8.824;2023-05-20T05:04:50;102740.31;;;9.78;53.27
78745;BME280;68064;53.100;8.824;2023-05-20T05:05:54;102732.75;;;9.79;60.52
78745;BME280;68064;53.100;8.824;2023-05-20T05:06:55;102728.19;;;9.75;55.09
78745;BME280;68064;53.100;8.824;2023-05-20T05:07:56;102732.63;;;9.78;57.42
78745;BME280;68064;53.100;8.824;2023-05-20T05:08:57;102732.75;;;9.79;54.25
78745;BME280;68064;53.100;8.824;2023-05-20T05:09:58;102724.28;;;9.80;52.51
78745;BME280;68064;53.100;8.824;2023-05-20T05:10:59;102725.31;;;9.82;54.62
78745;BME280;68064;53.100;8.824;2023-05-20T05:12:01;102740.91;;;9.85;54.32
78745;BME280;68064;53.100;8.824;2023-05-20T05:13:03;102732.78;;;9.91;55.10
78745;BME280;68064;53.100;8.824;2023-05-20T05:14:04;102725.13;;;9.91;54.99
78745;BME280;68064;53.100;8.824;2023-05-20T05:15:06;102733.16;;;9.95;53.59
78745;BME280;68064;53.100;8.824;2023-05-20T05:16:07;102733.25;;;9.97;55.14
78745;BME280;68064;53.100;8.824;2023-05-20T05:17:09;102728.25;;;9.98;54.83
78745;BME280;68064;53.100;8.824;2023-05-20T05:18:10;102734.38;;;10.00;55.64
78745;BME280;68064;53.100;8.824;2023-05-20T05:19:11;102732.03;;;10.03;60.28
78745;BME280;68064;53.100;8.824;2023-05-20T05:20:12;102733.94;;;10.06;54.59
78745;BME280;68064;53.100;8.824;2023-05-20T05:21:13;102737.53;;;10.08;52.91
78745;BME280;68064;53.100;8.824;2023-05-20T05:22:14;102735.28;;;10.13;52.54